createdAt,value
2023-09-23T00:00:17.389Z,8.70
2023-09-23T00:02:20.833Z,9.70
2023-09-23T00:04:24.326Z,7.93
2023-09-23T00:06:29.195Z,9.00
2023-09-23T00:08:32.561Z,8.90
2023-09-23T00:10:38.276Z,8.13
2023-09-23T00:12:43.045Z,9.40
2023-09-23T00:14:47.100Z,9.50
2023-09-23T00:16:52.035Z,9.67
2023-09-23T00:18:54.636Z,8.77
2023-09-23T00:20:58.358Z,11.00
2023-09-23T00:23:03.635Z,10.23
2023-09-23T00:25:08.394Z,10.03
2023-09-23T00:27:12.015Z,12.20
2023-09-23T00:29:15.373Z,12.30
2023-09-23T00:31:20.350Z,13.93
2023-09-23T00:33:26.806Z,13.90
2023-09-23T00:35:30.263Z,13.50
2023-09-23T00:37:33.652Z,13.30
2023-09-23T00:39:42.991Z,13.30
2023-09-23T00:41:46.491Z,13.27
2023-09-23T00:43:52.016Z,13.20
2023-09-23T00:45:56.858Z,14.50
2023-09-23T00:48:01.215Z,13.67
2023-09-23T00:50:07.604Z,15.17
2023-09-23T00:52:11.878Z,14.07
2023-09-23T00:54:15.885Z,14.03
2023-09-23T00:56:21.629Z,12.83
2023-09-23T00:58:27.658Z,13.10
2023-09-23T01:00:33.065Z,12.67
2023-09-23T01:02:39.049Z,13.50
2023-09-23T01:04:41.862Z,12.87
2023-09-23T01:06:46.764Z,12.60
2023-09-23T01:08:52.922Z,14.20
2023-09-23T01:10:56.272Z,12.60
2023-09-23T01:13:00.747Z,12.60
2023-09-23T01:15:18.291Z,10.97
2023-09-23T01:17:22.464Z,13.13
2023-09-23T01:19:28.350Z,11.50
2023-09-23T01:21:33.052Z,10.77
2023-09-23T01:23:37.645Z,11.00
2023-09-23T01:25:42.206Z,12.30
2023-09-23T01:27:45.661Z,10.93
2023-09-23T01:29:54.899Z,12.53
2023-09-23T01:32:11.697Z,11.07
2023-09-23T01:34:15.914Z,11.93
2023-09-23T01:36:19.400Z,13.53
2023-09-23T01:38:23.239Z,12.67
2023-09-23T01:40:30.509Z,12.80
2023-09-23T01:42:34.004Z,12.60
2023-09-23T01:44:37.781Z,15.40
2023-09-23T01:46:41.394Z,13.13
2023-09-23T01:48:44.933Z,12.00
2023-09-23T01:50:50.646Z,13.27
2023-09-23T01:52:55.663Z,11.77
2023-09-23T01:54:57.913Z,12.27
2023-09-23T01:57:04.075Z,13.70
2023-09-23T01:59:07.488Z,11.73
2023-09-23T02:01:10.891Z,13.50
2023-09-23T02:03:16.091Z,12.70
2023-09-23T02:05:19.985Z,12.00
2023-09-23T02:07:23.741Z,11.27
2023-09-23T02:09:26.563Z,10.73
2023-09-23T02:11:31.204Z,9.03
2023-09-23T02:13:41.602Z,8.20
2023-09-23T02:15:46.968Z,8.33
2023-09-23T02:17:51.125Z,9.27
2023-09-23T02:19:55.108Z,8.37
2023-09-23T02:21:58.635Z,6.97
2023-09-23T02:24:02.009Z,6.50
2023-09-23T02:26:05.483Z,6.53
2023-09-23T02:28:09.503Z,5.83
2023-09-23T02:30:15.729Z,7.20
2023-09-23T02:32:19.322Z,6.07
2023-09-23T02:34:22.881Z,5.10
2023-09-23T02:36:26.367Z,6.00
2023-09-23T02:38:29.783Z,6.30
2023-09-23T02:40:33.176Z,5.53
2023-09-23T02:42:35.434Z,6.03
2023-09-23T02:44:38.932Z,5.03
2023-09-23T02:46:44.060Z,4.40
2023-09-23T02:48:48.602Z,4.40
2023-09-23T02:50:52.065Z,5.20
2023-09-23T02:52:54.394Z,4.70
2023-09-23T02:54:58.134Z,4.80
2023-09-23T02:57:02.041Z,5.00
2023-09-23T02:59:13.126Z,4.10
2023-09-23T03:01:17.909Z,4.30
2023-09-23T03:03:23.252Z,4.40
2023-09-23T03:05:30.628Z,4.47
2023-09-23T03:07:36.566Z,4.13
2023-09-23T03:09:45.239Z,2.40
2023-09-23T03:11:54.545Z,2.60
2023-09-23T03:13:58.201Z,2.73
2023-09-23T03:16:09.574Z,2.20
2023-09-23T03:18:16.285Z,2.90
2023-09-23T03:20:22.562Z,3.37
2023-09-23T03:22:25.865Z,2.90
2023-09-23T03:24:31.096Z,3.13
2023-09-23T03:26:34.577Z,3.00
2023-09-23T03:28:40.421Z,2.43
2023-09-23T03:30:44.330Z,2.73
2023-09-23T03:32:48.257Z,2.50
2023-09-23T03:34:52.300Z,2.40
2023-09-23T03:36:57.273Z,2.47
2023-09-23T03:39:02.402Z,3.00
2023-09-23T03:41:05.846Z,2.33
2023-09-23T03:43:09.224Z,2.63
2023-09-23T03:45:12.165Z,2.40
2023-09-23T03:47:16.220Z,2.70
2023-09-23T03:49:20.169Z,2.50
2023-09-23T03:51:23.785Z,2.50
2023-09-23T03:53:28.485Z,2.73
2023-09-23T03:55:31.868Z,2.10
2023-09-23T03:57:34.081Z,2.40
2023-09-23T03:59:37.536Z,1.97
2023-09-23T04:01:41.128Z,2.20
2023-09-23T04:03:44.776Z,1.60
2023-09-23T04:05:55.914Z,2.23
2023-09-23T04:07:59.897Z,2.70
2023-09-23T04:10:04.949Z,1.80
2023-09-23T04:12:10.199Z,2.10
2023-09-23T04:14:13.501Z,3.10
2023-09-23T04:16:16.996Z,2.13
2023-09-23T04:18:20.901Z,1.70
2023-09-23T04:20:24.200Z,2.00
2023-09-23T04:22:27.593Z,1.87
2023-09-23T04:24:30.965Z,1.30
2023-09-23T04:26:35.597Z,1.50
2023-09-23T04:28:39.430Z,1.03
2023-09-23T04:30:42.871Z,1.83
2023-09-23T04:32:47.264Z,1.50
2023-09-23T04:34:50.810Z,1.30
2023-09-23T04:36:54.182Z,1.57
2023-09-23T04:38:57.459Z,1.90
2023-09-23T04:41:01.400Z,1.80
2023-09-23T04:43:06.414Z,1.70
2023-09-23T04:45:10.728Z,1.70
2023-09-23T04:47:14.021Z,1.20
2023-09-23T04:49:17.362Z,1.97
2023-09-23T04:51:20.803Z,1.80
2023-09-23T04:53:24.326Z,2.00
2023-09-23T04:55:29.542Z,1.97
2023-09-23T04:57:32.625Z,1.87
2023-09-23T04:59:37.336Z,1.90
2023-09-23T05:01:41.442Z,1.30
2023-09-23T05:03:44.756Z,1.90
2023-09-23T05:05:48.024Z,2.20
2023-09-23T05:07:51.734Z,1.17
2023-09-23T05:09:57.027Z,1.23
2023-09-23T05:12:01.047Z,1.57
2023-09-23T05:14:06.026Z,1.17
2023-09-23T05:16:11.213Z,1.27
2023-09-23T05:18:14.833Z,1.67
2023-09-23T05:20:18.394Z,1.20
2023-09-23T05:22:22.156Z,0.90
2023-09-23T05:24:27.869Z,1.20
2023-09-23T05:26:31.448Z,1.03
2023-09-23T05:28:34.963Z,1.20
2023-09-23T05:30:38.529Z,1.50
2023-09-23T05:32:45.062Z,1.40
2023-09-23T05:34:52.427Z,1.60
2023-09-23T05:36:56.316Z,1.40
2023-09-23T05:39:00.184Z,2.17
2023-09-23T05:41:03.953Z,1.70
2023-09-23T05:43:07.900Z,1.00
2023-09-23T05:45:11.933Z,1.27
2023-09-23T05:47:15.859Z,1.33
2023-09-23T05:49:20.919Z,1.33
2023-09-23T05:51:24.478Z,1.20
2023-09-23T05:53:28.105Z,0.97
2023-09-23T05:55:33.173Z,1.20
2023-09-23T05:57:36.119Z,1.43
2023-09-23T05:59:39.594Z,1.73
2023-09-23T06:01:43.363Z,2.10
2023-09-23T06:03:47.126Z,1.73
2023-09-23T06:05:52.549Z,1.40
2023-09-23T06:07:56.255Z,1.30
2023-09-23T06:10:00.517Z,1.30
2023-09-23T06:12:04.036Z,1.83
2023-09-23T06:14:09.927Z,1.30
2023-09-23T06:16:13.500Z,1.07
2023-09-23T06:18:17.032Z,1.63
2023-09-23T06:20:20.785Z,1.53
2023-09-23T06:22:26.648Z,1.43
2023-09-23T06:24:30.215Z,1.50
2023-09-23T06:26:35.059Z,1.13
2023-09-23T06:28:38.645Z,1.67
2023-09-23T06:30:44.267Z,1.50
2023-09-23T06:32:48.739Z,1.27
2023-09-23T06:34:52.862Z,1.30
2023-09-23T06:36:56.431Z,1.07
2023-09-23T06:39:02.056Z,1.17
2023-09-23T06:41:05.588Z,0.97
2023-09-23T06:43:09.203Z,1.33
2023-09-23T06:45:13.419Z,1.03
2023-09-23T06:47:17.077Z,1.57
2023-09-23T06:49:20.961Z,1.00
2023-09-23T06:51:24.535Z,1.50
2023-09-23T06:53:27.370Z,0.80
2023-09-23T06:55:32.315Z,1.30
2023-09-23T06:57:36.321Z,0.90
2023-09-23T06:59:39.973Z,1.80
2023-09-23T07:01:43.685Z,0.90
2023-09-23T07:03:48.044Z,1.23
2023-09-23T07:05:52.175Z,1.40
2023-09-23T07:07:56.061Z,1.57
2023-09-23T07:09:59.723Z,1.60
2023-09-23T07:12:04.730Z,1.80
2023-09-23T07:14:08.367Z,2.20
2023-09-23T07:16:15.816Z,1.50
2023-09-23T07:18:19.739Z,1.70
2023-09-23T07:20:23.383Z,1.60
2023-09-23T07:22:27.024Z,1.03
2023-09-23T07:24:33.294Z,1.40
2023-09-23T07:26:36.858Z,1.60
2023-09-23T07:28:41.829Z,1.97
2023-09-23T07:30:45.502Z,1.23
2023-09-23T07:32:49.179Z,1.97
2023-09-23T07:34:52.895Z,1.03
2023-09-23T07:36:56.442Z,1.70
2023-09-23T07:38:59.977Z,1.20
2023-09-23T07:41:04.266Z,1.13
2023-09-23T07:43:07.878Z,1.20
2023-09-23T07:45:13.425Z,1.23
2023-09-23T07:47:17.015Z,1.30
2023-09-23T07:49:20.768Z,2.70
2023-09-23T07:51:24.364Z,1.10
2023-09-23T07:53:28.161Z,1.27
2023-09-23T07:55:32.090Z,1.00
2023-09-23T07:57:35.652Z,1.60
2023-09-23T07:59:38.179Z,1.53
2023-09-23T08:01:43.131Z,1.30
2023-09-23T08:03:46.804Z,1.00
2023-09-23T08:05:50.532Z,1.30
2023-09-23T08:07:54.749Z,1.63
2023-09-23T08:09:58.358Z,1.00
2023-09-23T08:12:01.939Z,1.33
2023-09-23T08:14:05.558Z,1.20
2023-09-23T08:16:09.152Z,1.20
2023-09-23T08:18:14.977Z,1.17
2023-09-23T08:20:21.548Z,0.77
2023-09-23T08:22:25.280Z,0.97
2023-09-23T08:24:28.939Z,1.40
2023-09-23T08:26:32.822Z,1.10
2023-09-23T08:28:36.420Z,1.27
2023-09-23T08:30:38.943Z,1.57
2023-09-23T08:32:43.086Z,1.27
2023-09-23T08:34:48.233Z,1.87
2023-09-23T08:36:51.776Z,1.23
2023-09-23T08:38:55.666Z,1.40
2023-09-23T08:40:59.368Z,1.67
2023-09-23T08:43:03.823Z,1.20
2023-09-23T08:45:09.828Z,1.20
2023-09-23T08:47:13.761Z,1.00
2023-09-23T08:49:18.149Z,2.40
2023-09-23T08:51:32.836Z,1.30
2023-09-23T08:53:36.681Z,1.20
2023-09-23T08:55:40.284Z,1.30
2023-09-23T08:57:43.865Z,1.07
2023-09-23T08:59:47.455Z,0.90
2023-09-23T09:01:51.135Z,1.63
2023-09-23T09:03:54.974Z,1.73
2023-09-23T09:06:00.328Z,1.77
2023-09-23T09:08:06.223Z,1.60
2023-09-23T09:10:10.024Z,1.83
2023-09-23T09:12:13.616Z,2.60
2023-09-23T09:14:17.340Z,2.00
2023-09-23T09:16:22.456Z,2.40
2023-09-23T09:18:26.914Z,2.70
2023-09-23T09:20:30.821Z,2.47
2023-09-23T09:22:35.426Z,2.90
2023-09-23T09:24:41.556Z,2.40
2023-09-23T09:26:46.940Z,3.67
2023-09-23T09:28:49.512Z,2.90
2023-09-23T09:30:57.386Z,3.10
2023-09-23T09:33:03.906Z,2.80
2023-09-23T09:35:08.114Z,3.40
2023-09-23T09:37:14.749Z,3.83
2023-09-23T09:39:19.948Z,2.00
2023-09-23T09:41:32.387Z,2.10
2023-09-23T09:43:36.185Z,2.07
2023-09-23T09:45:41.938Z,3.33
2023-09-23T09:47:48.766Z,2.80
2023-09-23T09:49:54.316Z,2.60
2023-09-23T09:51:58.970Z,2.27
2023-09-23T09:54:02.781Z,2.80
2023-09-23T09:56:07.362Z,2.73
2023-09-23T09:58:13.042Z,1.60
2023-09-23T10:00:26.260Z,1.90
2023-09-23T10:02:30.511Z,1.93
2023-09-23T10:04:34.987Z,2.17
2023-09-23T10:06:43.443Z,1.40
2023-09-23T10:08:49.397Z,1.67
2023-09-23T10:10:53.577Z,1.50
2023-09-23T10:13:00.162Z,2.70
2023-09-23T10:15:05.424Z,1.70
2023-09-23T10:17:10.956Z,1.70
2023-09-23T10:19:14.729Z,1.57
2023-09-23T10:21:25.501Z,1.77
2023-09-23T10:23:29.866Z,1.87
2023-09-23T10:25:39.964Z,2.57
2023-09-23T10:27:57.649Z,2.63
2023-09-23T10:30:02.130Z,2.30
2023-09-23T10:32:15.634Z,1.90
2023-09-23T10:34:19.746Z,1.07
2023-09-23T10:36:23.826Z,1.77
2023-09-23T10:38:29.223Z,1.93
2023-09-23T10:40:33.124Z,1.40
2023-09-23T10:42:37.315Z,1.10
2023-09-23T10:44:40.258Z,1.40
2023-09-23T10:46:43.905Z,1.00
2023-09-23T10:48:49.200Z,1.17
2023-09-23T10:50:53.217Z,1.00
2023-09-23T10:52:55.714Z,1.30
2023-09-23T10:54:59.980Z,1.60
2023-09-23T10:57:03.722Z,1.37
2023-09-23T10:59:07.839Z,1.40
2023-09-23T11:01:11.586Z,1.40
2023-09-23T11:03:18.239Z,1.23
2023-09-23T11:05:23.627Z,1.00
2023-09-23T11:07:28.193Z,1.07
2023-09-23T11:09:32.036Z,1.23
2023-09-23T11:11:38.044Z,1.33
2023-09-23T11:13:41.771Z,1.30
2023-09-23T11:15:46.256Z,0.97
2023-09-23T11:17:50.232Z,1.30
2023-09-23T11:19:57.418Z,1.20
2023-09-23T11:22:03.640Z,1.33
2023-09-23T11:24:08.355Z,1.77
2023-09-23T11:26:12.263Z,1.23
2023-09-23T11:28:19.499Z,1.40
2023-09-23T11:30:23.585Z,1.93
2023-09-23T11:32:27.804Z,1.40
2023-09-23T11:34:31.784Z,1.80
2023-09-23T11:36:35.646Z,0.90
2023-09-23T11:38:41.895Z,1.40
2023-09-23T11:40:46.912Z,1.63
2023-09-23T11:42:49.534Z,1.50
2023-09-23T11:44:53.969Z,1.30
2023-09-23T11:46:57.469Z,1.37
2023-09-23T11:49:01.333Z,1.00
2023-09-23T11:51:04.950Z,1.50
2023-09-23T11:53:08.603Z,1.27
2023-09-23T11:55:13.912Z,2.40
2023-09-23T11:57:17.499Z,1.20
2023-09-23T11:59:22.526Z,1.83
2023-09-23T12:01:26.331Z,1.80
2023-09-23T12:03:30.130Z,1.30
2023-09-23T12:05:33.984Z,1.47
2023-09-23T12:07:38.477Z,1.20
2023-09-23T12:09:42.270Z,1.87
2023-09-23T12:11:47.496Z,2.13
2023-09-23T12:13:54.258Z,1.70
2023-09-23T12:15:57.980Z,1.67
2023-09-23T12:18:02.347Z,1.30
2023-09-23T12:20:08.686Z,1.07
2023-09-23T12:22:13.653Z,1.70
2023-09-23T12:24:17.368Z,1.50
2023-09-23T12:26:21.236Z,1.50
2023-09-23T12:28:26.290Z,1.33
2023-09-23T12:30:29.940Z,1.80
2023-09-23T12:32:34.464Z,1.40
2023-09-23T12:34:38.235Z,1.40
2023-09-23T12:36:41.878Z,1.47
2023-09-23T12:38:46.398Z,1.67
2023-09-23T12:40:50.345Z,1.50
2023-09-23T12:42:53.955Z,1.70
2023-09-23T12:44:59.063Z,1.70
2023-09-23T12:47:04.141Z,1.70
2023-09-23T12:49:09.771Z,1.50
2023-09-23T12:51:14.214Z,1.63
2023-09-23T12:53:17.898Z,1.80
2023-09-23T12:55:20.540Z,2.57
2023-09-23T12:57:24.149Z,1.70
2023-09-23T12:59:26.716Z,2.00
2023-09-23T13:01:32.345Z,1.70
2023-09-23T13:03:36.352Z,1.60
2023-09-23T13:05:39.869Z,1.47
2023-09-23T13:07:43.767Z,1.97
2023-09-23T13:09:47.964Z,1.90
2023-09-23T13:11:50.677Z,1.70
2023-09-23T13:13:54.338Z,1.80
2023-09-23T13:15:58.033Z,1.80
2023-09-23T13:18:04.063Z,1.70
2023-09-23T13:20:08.830Z,2.10
2023-09-23T13:22:12.900Z,1.10
2023-09-23T13:24:16.522Z,1.90
2023-09-23T13:26:20.832Z,1.80
2023-09-23T13:28:24.825Z,1.70
2023-09-23T13:30:28.667Z,1.77
2023-09-23T13:32:32.657Z,1.63
2023-09-23T13:34:37.990Z,1.90
2023-09-23T13:36:41.989Z,2.17
2023-09-23T13:38:47.590Z,1.70
2023-09-23T13:40:51.739Z,1.90
2023-09-23T13:42:55.567Z,1.70
2023-09-23T13:44:59.235Z,2.30
2023-09-23T13:47:03.288Z,2.10
2023-09-23T13:49:06.705Z,1.87
2023-09-23T13:51:11.701Z,2.80
2023-09-23T13:53:15.191Z,1.87
2023-09-23T13:55:18.517Z,1.63
2023-09-23T13:57:21.970Z,2.23
2023-09-23T13:59:25.286Z,1.80
2023-09-23T14:01:30.204Z,2.43
2023-09-23T14:03:35.481Z,2.00
2023-09-23T14:05:38.884Z,2.03
2023-09-23T14:07:43.658Z,2.37
2023-09-23T14:10:14.584Z,2.30
2023-09-23T14:12:24.293Z,2.40
2023-09-23T14:14:27.794Z,2.87
2023-09-23T14:16:31.297Z,2.10
2023-09-23T14:18:33.623Z,1.83
2023-09-23T14:20:37.006Z,2.63
2023-09-23T14:22:39.341Z,2.20
2023-09-23T14:24:44.024Z,2.00
2023-09-23T14:26:47.291Z,1.97
2023-09-23T14:28:50.813Z,2.73
2023-09-23T14:30:54.138Z,2.67
2023-09-23T14:32:57.603Z,2.23
2023-09-23T14:35:01.297Z,2.97
2023-09-23T14:37:04.694Z,2.23
2023-09-23T14:39:08.305Z,2.80
2023-09-23T14:41:13.393Z,2.53
2023-09-23T14:43:16.861Z,3.37
2023-09-23T14:45:20.468Z,2.77
2023-09-23T14:47:23.893Z,1.93
2023-09-23T14:49:27.347Z,2.33
2023-09-23T14:51:29.817Z,2.43
2023-09-23T14:53:36.013Z,2.70
2023-09-23T14:55:39.550Z,2.30
2023-09-23T14:57:44.607Z,2.10
2023-09-23T14:59:47.890Z,2.27
2023-09-23T15:01:51.341Z,2.77
2023-09-23T15:03:55.061Z,2.20
2023-09-23T15:05:58.522Z,1.73
2023-09-23T15:08:02.291Z,2.33
2023-09-23T15:10:06.718Z,3.37
2023-09-23T15:12:10.588Z,2.30
2023-09-23T15:14:16.586Z,2.63
2023-09-23T15:16:20.369Z,3.03
2023-09-23T15:18:24.172Z,2.50
2023-09-23T15:20:27.699Z,2.80
2023-09-23T15:22:32.576Z,2.80
2023-09-23T15:24:36.370Z,2.23
2023-09-23T15:26:39.856Z,3.20
2023-09-23T15:28:43.764Z,2.73
2023-09-23T15:30:48.601Z,3.30
2023-09-23T15:32:52.078Z,2.43
2023-09-23T15:34:55.569Z,3.00
2023-09-23T15:36:59.103Z,3.00
2023-09-23T15:39:02.574Z,3.50
2023-09-23T15:41:05.995Z,3.10
2023-09-23T15:43:09.360Z,2.83
2023-09-23T15:45:13.384Z,3.47
2023-09-23T15:47:19.590Z,3.57
2023-09-23T15:49:23.530Z,3.13
2023-09-23T15:51:26.780Z,3.13
2023-09-23T15:53:29.539Z,3.27
2023-09-23T15:55:32.990Z,3.20
2023-09-23T15:57:36.305Z,3.67
2023-09-23T15:59:39.991Z,2.97
2023-09-23T16:01:43.663Z,2.90
2023-09-23T16:03:48.543Z,2.77
2023-09-23T16:05:52.172Z,2.47
2023-09-23T16:07:55.557Z,2.20
2023-09-23T16:09:59.128Z,1.77
2023-09-23T16:12:02.791Z,2.13
2023-09-23T16:14:06.062Z,2.60
2023-09-23T16:16:09.315Z,2.57
2023-09-23T16:18:12.955Z,2.80
2023-09-23T16:20:18.199Z,2.03
2023-09-23T16:22:21.975Z,2.87
2023-09-23T16:24:25.289Z,2.73
2023-09-23T16:26:28.749Z,1.93
2023-09-23T16:28:33.030Z,3.10
2023-09-23T16:30:35.539Z,2.77
2023-09-23T16:32:39.604Z,2.70
2023-09-23T16:34:43.800Z,2.40
2023-09-23T16:36:48.821Z,2.53
2023-09-23T16:38:52.248Z,2.30
2023-09-23T16:40:55.585Z,2.47
2023-09-23T16:42:58.849Z,2.73
2023-09-23T16:45:02.357Z,2.67
2023-09-23T16:47:05.802Z,2.70
2023-09-23T16:49:09.081Z,2.53
2023-09-23T16:51:12.641Z,2.90
2023-09-23T16:53:16.583Z,2.90
2023-09-23T16:55:20.281Z,2.90
2023-09-23T16:57:23.584Z,3.30
2023-09-23T16:59:27.162Z,2.10
2023-09-23T17:01:30.484Z,3.13
2023-09-23T17:03:33.777Z,2.60
2023-09-23T17:05:37.945Z,2.70
2023-09-23T17:07:41.564Z,2.70
2023-09-23T17:09:46.196Z,2.40
2023-09-23T17:11:49.506Z,2.83
2023-09-23T17:13:53.034Z,2.50
2023-09-23T17:15:56.444Z,2.80
2023-09-23T17:18:02.341Z,3.40
2023-09-23T17:20:06.897Z,2.73
2023-09-23T17:22:10.915Z,3.03
2023-09-23T17:24:13.142Z,3.10
2023-09-23T17:26:17.867Z,3.67
2023-09-23T17:28:21.226Z,2.60
2023-09-23T17:30:24.847Z,3.27
2023-09-23T17:32:28.187Z,3.10
2023-09-23T17:34:31.627Z,2.83
2023-09-23T17:36:35.034Z,4.13
2023-09-23T17:38:38.429Z,3.53
2023-09-23T17:40:48.555Z,3.90
2023-09-23T17:42:53.242Z,3.73
2023-09-23T17:44:56.547Z,4.03
2023-09-23T17:46:59.898Z,3.40
2023-09-23T17:49:03.640Z,4.40
2023-09-23T17:51:06.953Z,3.80
2023-09-23T17:53:10.506Z,3.47
2023-09-23T17:55:13.857Z,3.50
2023-09-23T17:57:17.114Z,4.47
2023-09-23T17:59:21.837Z,4.20
2023-09-23T18:01:25.299Z,4.03
2023-09-23T18:03:31.775Z,4.53
2023-09-23T18:05:36.335Z,4.73
2023-09-23T18:07:40.711Z,5.30
2023-09-23T18:09:44.155Z,4.90
2023-09-23T18:11:48.319Z,4.87
2023-09-23T18:13:51.659Z,5.83
2023-09-23T18:15:55.905Z,6.13
2023-09-23T18:17:59.378Z,6.23
2023-09-23T18:20:04.248Z,5.17
2023-09-23T18:22:07.556Z,5.17
2023-09-23T18:24:10.897Z,4.00
2023-09-23T18:26:15.316Z,3.53
2023-09-23T18:28:18.710Z,3.33
2023-09-23T18:30:22.205Z,2.00
2023-09-23T18:32:27.131Z,2.17
2023-09-23T18:34:30.669Z,2.67
2023-09-23T18:36:33.962Z,1.37
2023-09-23T18:38:37.404Z,2.20
2023-09-23T18:40:40.807Z,1.80
2023-09-23T18:42:44.299Z,2.70
2023-09-23T18:44:47.724Z,1.40
2023-09-23T18:46:51.095Z,1.43
2023-09-23T18:48:55.939Z,1.63
2023-09-23T18:50:59.294Z,1.30
2023-09-23T18:53:01.674Z,0.97
2023-09-23T18:55:05.676Z,2.00
2023-09-23T18:57:09.009Z,1.33
2023-09-23T18:59:12.342Z,1.20
2023-09-23T19:01:15.888Z,1.20
2023-09-23T19:03:19.440Z,0.97
2023-09-23T19:05:24.460Z,0.83
2023-09-23T19:07:27.889Z,0.87
2023-09-23T19:09:32.615Z,0.90
2023-09-23T19:11:36.573Z,0.70
2023-09-23T19:13:40.285Z,0.80
2023-09-23T19:15:48.894Z,0.93
2023-09-23T19:17:52.653Z,0.80
2023-09-23T19:19:56.202Z,0.80
2023-09-23T19:22:01.831Z,0.87
2023-09-23T19:24:05.514Z,0.97
2023-09-23T19:26:08.955Z,0.93
2023-09-23T19:28:12.351Z,1.10
2023-09-23T19:30:16.420Z,1.00
2023-09-23T19:32:19.882Z,0.83
2023-09-23T19:34:27.727Z,1.33
2023-09-23T19:36:31.434Z,0.77
2023-09-23T19:38:36.613Z,1.07
2023-09-23T19:40:41.278Z,0.80
2023-09-23T19:42:44.823Z,0.83
2023-09-23T19:44:48.635Z,0.87
2023-09-23T19:46:52.352Z,0.77
2023-09-23T19:48:56.391Z,0.87
2023-09-23T19:51:00.726Z,0.93
2023-09-23T19:53:04.177Z,1.07
2023-09-23T19:55:11.893Z,1.17
2023-09-23T19:57:15.204Z,0.77
2023-09-23T19:59:21.110Z,0.83
2023-09-23T20:01:24.887Z,0.80
2023-09-23T20:03:29.582Z,1.00
2023-09-23T20:05:32.311Z,1.10
2023-09-23T20:07:36.178Z,1.10
2023-09-23T20:09:39.523Z,0.90
2023-09-23T20:11:45.235Z,1.17
2023-09-23T20:13:49.568Z,0.63
2023-09-23T20:15:52.246Z,0.80
2023-09-23T20:17:57.731Z,0.80
2023-09-23T20:20:01.464Z,0.70
2023-09-23T20:22:04.774Z,1.03
2023-09-23T20:24:09.318Z,0.93
2023-09-23T20:26:14.125Z,0.70
2023-09-23T20:28:21.050Z,1.40
2023-09-23T20:30:24.927Z,1.87
2023-09-23T20:32:29.678Z,1.57
2023-09-23T20:34:33.275Z,0.97
2023-09-23T20:36:36.719Z,0.93
2023-09-23T20:38:40.353Z,0.87
2023-09-23T20:40:44.319Z,1.00
2023-09-23T20:42:46.535Z,0.80
2023-09-23T20:44:51.192Z,0.83
2023-09-23T20:46:54.507Z,0.80
2023-09-23T20:48:57.885Z,1.10
2023-09-23T20:51:01.256Z,0.97
2023-09-23T20:53:04.779Z,0.67
2023-09-23T20:55:09.152Z,0.80
2023-09-23T20:57:12.684Z,0.80
2023-09-23T20:59:16.118Z,1.53
2023-09-23T21:01:20.977Z,0.83
2023-09-23T21:03:24.470Z,0.80
2023-09-23T21:05:28.482Z,1.03
2023-09-23T21:07:32.331Z,0.80
2023-09-23T21:09:35.930Z,0.80
2023-09-23T21:11:40.967Z,0.83
2023-09-23T21:13:44.355Z,0.50
2023-09-23T21:15:48.106Z,1.00
2023-09-23T21:17:54.163Z,1.17
2023-09-23T21:19:57.579Z,0.90
2023-09-23T21:22:02.572Z,1.30
2023-09-23T21:24:06.442Z,0.90
2023-09-23T21:26:09.936Z,0.70
2023-09-23T21:28:13.318Z,0.70
2023-09-23T21:30:17.652Z,1.10
2023-09-23T21:32:21.615Z,0.60
2023-09-23T21:34:29.216Z,0.80
2023-09-23T21:36:32.933Z,1.00
2023-09-23T21:38:36.389Z,0.93
2023-09-23T21:40:44.128Z,0.93
2023-09-23T21:42:47.613Z,0.90
2023-09-23T21:44:50.969Z,0.60
2023-09-23T21:46:54.415Z,0.73
2023-09-23T21:48:58.098Z,0.70
2023-09-23T21:51:04.475Z,0.80
2023-09-23T21:53:07.956Z,1.10
2023-09-23T21:55:12.374Z,0.73
2023-09-23T21:57:15.735Z,0.63
2023-09-23T21:59:19.327Z,0.77
2023-09-23T22:01:21.837Z,0.60
2023-09-23T22:03:25.387Z,1.17
2023-09-23T22:05:29.261Z,1.17
2023-09-23T22:07:34.268Z,1.03
2023-09-23T22:09:37.636Z,0.97
2023-09-23T22:11:43.201Z,0.70
2023-09-23T22:13:47.165Z,0.70
2023-09-23T22:15:50.584Z,1.10
2023-09-23T22:17:54.243Z,0.77
2023-09-23T22:19:57.159Z,0.93
2023-09-23T22:22:02.082Z,1.00
2023-09-23T22:24:08.305Z,0.83
2023-09-23T22:26:15.442Z,0.87
2023-09-23T22:28:18.922Z,0.80
2023-09-23T22:30:25.703Z,0.70
2023-09-23T22:32:29.735Z,0.70
2023-09-23T22:34:34.954Z,0.97
2023-09-23T22:36:37.272Z,0.70
2023-09-23T22:38:40.689Z,0.90
2023-09-23T22:40:47.770Z,0.80
2023-09-23T22:42:51.655Z,0.97
2023-09-23T22:44:55.129Z,0.83
2023-09-23T22:46:58.847Z,0.60
2023-09-23T22:49:01.279Z,0.80
2023-09-23T22:51:05.394Z,0.73
2023-09-23T22:53:09.556Z,0.70
2023-09-23T22:55:14.538Z,0.70
2023-09-23T22:57:19.290Z,0.90
2023-09-23T22:59:25.083Z,0.70
2023-09-23T23:01:28.513Z,1.47
2023-09-23T23:03:32.019Z,0.80
2023-09-23T23:05:36.240Z,0.90
2023-09-23T23:07:39.969Z,1.07
2023-09-23T23:09:42.357Z,0.90
2023-09-23T23:11:45.699Z,0.70
2023-09-23T23:13:51.193Z,0.60
2023-09-23T23:15:54.622Z,0.80
2023-09-23T23:17:58.200Z,0.60
2023-09-23T23:20:03.680Z,0.73
2023-09-23T23:22:07.083Z,0.60
2023-09-23T23:24:11.121Z,0.73
2023-09-23T23:26:16.298Z,0.60
2023-09-23T23:28:19.646Z,0.73
2023-09-23T23:30:24.690Z,0.77
2023-09-23T23:32:28.136Z,0.57
2023-09-23T23:34:31.674Z,0.80
2023-09-23T23:36:35.046Z,0.70
2023-09-23T23:38:40.652Z,0.80
2023-09-23T23:40:44.306Z,0.90
2023-09-23T23:42:47.652Z,2.00
2023-09-23T23:44:53.399Z,0.90
2023-09-23T23:46:58.348Z,0.93
2023-09-23T23:49:02.258Z,1.00
2023-09-23T23:51:06.745Z,0.60
2023-09-23T23:53:10.087Z,1.47
2023-09-23T23:55:13.973Z,0.70
2023-09-23T23:57:17.582Z,1.23
2023-09-23T23:59:21.417Z,0.80
